createdAt,value
2024-03-15T00:00:15.905Z,97284.97
2024-03-15T00:02:46.523Z,97293.09
2024-03-15T00:05:15.159Z,97292.38
2024-03-15T00:07:43.675Z,97288.94
2024-03-15T00:10:12.168Z,97290.06
2024-03-15T00:12:40.693Z,97295.50
2024-03-15T00:15:10.576Z,97285.22
2024-03-15T00:17:39.439Z,97287.22
2024-03-15T00:20:09.346Z,97288.34
2024-03-15T00:22:38.149Z,97289.47
2024-03-15T00:25:08.314Z,97294.94
2024-03-15T00:27:36.848Z,97293.28
2024-03-15T00:30:08.905Z,97287.28
2024-03-15T00:32:37.343Z,97294.56
2024-03-15T00:35:06.316Z,97288.59
2024-03-15T00:37:34.775Z,97286.25
2024-03-15T00:40:03.328Z,97286.41
2024-03-15T00:42:32.029Z,97278.63
2024-03-15T00:45:01.965Z,97283.22
2024-03-15T00:47:31.488Z,97282.72
2024-03-15T00:49:59.893Z,97277.72
2024-03-15T00:52:28.377Z,97278.81
2024-03-15T00:54:57.326Z,97276.47
2024-03-15T00:57:25.930Z,97276.78
2024-03-15T00:59:54.669Z,97269.13
2024-03-15T01:02:23.178Z,97272.78
2024-03-15T01:04:52.405Z,97270.59
2024-03-15T01:07:21.544Z,97266.44
2024-03-15T01:09:50.037Z,97272.03
2024-03-15T01:12:18.543Z,97267.88
2024-03-15T01:14:47.503Z,97260.22
2024-03-15T01:17:18.868Z,97270.97
2024-03-15T01:19:47.402Z,97256.38
2024-03-15T01:22:16.827Z,97256.69
2024-03-15T01:24:45.420Z,97258.50
2024-03-15T01:27:13.977Z,97260.63
2024-03-15T01:29:45.671Z,97260.09
2024-03-15T01:32:14.169Z,97264.72
2024-03-15T01:34:42.597Z,97258.88
2024-03-15T01:37:11.542Z,97255.53
2024-03-15T01:39:40.321Z,97248.75
2024-03-15T01:42:08.805Z,97245.56
2024-03-15T01:44:48.147Z,97255.50
2024-03-15T01:47:16.838Z,97247.16
2024-03-15T01:49:47.953Z,97252.59
2024-03-15T01:52:16.505Z,97260.16
2024-03-15T01:54:45.927Z,97250.56
2024-03-15T01:57:14.668Z,97259.63
2024-03-15T01:59:43.665Z,97251.00
2024-03-15T02:02:14.488Z,97252.94
2024-03-15T02:04:42.964Z,97250.59
2024-03-15T02:07:11.448Z,97248.94
2024-03-15T02:09:39.982Z,97250.91
2024-03-15T02:12:10.051Z,97258.19
2024-03-15T02:14:38.563Z,97260.97
2024-03-15T02:17:08.110Z,97259.47
2024-03-15T02:19:36.592Z,97251.69
2024-03-15T02:22:05.067Z,97253.63
2024-03-15T02:24:33.534Z,97258.06
2024-03-15T02:27:02.865Z,97259.22
2024-03-15T02:29:31.369Z,97261.16
2024-03-15T02:31:59.866Z,97262.28
2024-03-15T02:34:28.387Z,97258.00
2024-03-15T02:36:59.600Z,97256.47
2024-03-15T02:39:28.204Z,97264.53
2024-03-15T02:41:57.029Z,97270.97
2024-03-15T02:44:25.823Z,97273.91
2024-03-15T02:46:54.301Z,97279.34
2024-03-15T02:49:22.800Z,97280.47
2024-03-15T02:51:53.130Z,97279.91
2024-03-15T02:54:21.749Z,97285.34
2024-03-15T02:56:50.316Z,97277.72
2024-03-15T02:59:20.710Z,97279.66
2024-03-15T03:01:52.717Z,97279.81
2024-03-15T03:04:21.275Z,97285.38
2024-03-15T03:06:49.789Z,97290.00
2024-03-15T03:09:19.552Z,97285.00
2024-03-15T03:11:48.075Z,97287.78
2024-03-15T03:14:16.659Z,97294.19
2024-03-15T03:16:46.162Z,97292.50
2024-03-15T03:19:18.355Z,97294.47
2024-03-15T03:21:47.827Z,97296.41
2024-03-15T03:24:16.664Z,97293.06
2024-03-15T03:26:45.919Z,97291.41
2024-03-15T03:29:14.385Z,97293.34
2024-03-15T03:31:43.764Z,97299.63
2024-03-15T03:34:12.321Z,97300.63
2024-03-15T03:36:40.943Z,97297.28
2024-03-15T03:39:11.866Z,97295.47
2024-03-15T03:41:43.619Z,97302.56
2024-03-15T03:44:12.084Z,97300.91
2024-03-15T03:46:39.560Z,97300.91
2024-03-15T03:49:08.037Z,97302.69
2024-03-15T03:51:36.587Z,97300.19
2024-03-15T03:54:08.074Z,97301.19
2024-03-15T03:56:40.239Z,97306.47
2024-03-15T03:59:09.701Z,97304.63
2024-03-15T04:01:39.323Z,97304.78
2024-03-15T04:04:08.218Z,97302.28
2024-03-15T04:06:37.007Z,97305.06
2024-03-15T04:09:05.626Z,97305.22
2024-03-15T04:11:34.354Z,97308.69
2024-03-15T04:14:04.568Z,97306.06
2024-03-15T04:16:33.205Z,97303.56
2024-03-15T04:19:02.476Z,97306.19
2024-03-15T04:21:31.000Z,97300.91
2024-03-15T04:23:59.804Z,97300.91
2024-03-15T04:26:29.383Z,97308.00
2024-03-15T04:28:58.672Z,97306.34
2024-03-15T04:31:27.165Z,97305.34
2024-03-15T04:33:56.803Z,97305.34
2024-03-15T04:36:27.324Z,97308.84
2024-03-15T04:38:55.811Z,97308.00
2024-03-15T04:41:24.335Z,97310.63
2024-03-15T04:43:52.784Z,97308.13
2024-03-15T04:46:21.230Z,97308.28
2024-03-15T04:48:50.000Z,97310.91
2024-03-15T04:51:19.258Z,97318.97
2024-03-15T04:53:47.763Z,97314.53
2024-03-15T04:56:16.245Z,97319.84
2024-03-15T04:58:45.007Z,97319.97
2024-03-15T05:01:15.353Z,97322.63
2024-03-15T05:03:44.163Z,97318.19
2024-03-15T05:06:20.456Z,97319.97
2024-03-15T05:09:00.991Z,97313.97
2024-03-15T05:11:33.152Z,97319.28
2024-03-15T05:14:01.682Z,97325.53
2024-03-15T05:16:30.176Z,97334.31
2024-03-15T05:18:58.720Z,97334.31
2024-03-15T05:21:27.272Z,97334.31
2024-03-15T05:23:55.786Z,97337.09
2024-03-15T05:26:24.252Z,97342.38
2024-03-15T05:28:52.715Z,97337.22
2024-03-15T05:31:28.183Z,97330.25
2024-03-15T05:33:56.733Z,97336.53
2024-03-15T05:36:25.295Z,97334.72
2024-03-15T05:38:53.832Z,97334.03
2024-03-15T05:41:22.367Z,97335.00
2024-03-15T05:43:51.208Z,97334.16
2024-03-15T05:46:19.724Z,97335.00
2024-03-15T05:48:48.470Z,97336.81
2024-03-15T05:51:17.027Z,97339.44
2024-03-15T05:53:48.539Z,97337.66
2024-03-15T05:56:17.324Z,97329.88
2024-03-15T05:58:45.867Z,97340.44
2024-03-15T06:01:13.685Z,97344.06
2024-03-15T06:03:42.552Z,97343.06
2024-03-15T06:06:11.546Z,97342.94
2024-03-15T06:08:40.056Z,97341.09
2024-03-15T06:11:08.565Z,97352.50
2024-03-15T06:13:37.236Z,97344.59
2024-03-15T06:16:06.619Z,97346.25
2024-03-15T06:18:38.778Z,97357.78
2024-03-15T06:21:09.949Z,97359.44
2024-03-15T06:23:38.444Z,97359.44
2024-03-15T06:26:07.271Z,97355.00
2024-03-15T06:28:38.224Z,97366.28
2024-03-15T06:31:09.651Z,97358.34
2024-03-15T06:33:38.132Z,97363.50
2024-03-15T06:36:06.908Z,97368.63
2024-03-15T06:38:52.415Z,97363.34
2024-03-15T06:41:31.033Z,97367.66
2024-03-15T06:44:20.869Z,97366.53
2024-03-15T06:47:16.457Z,97368.88
2024-03-15T06:49:55.939Z,97379.31
2024-03-15T06:52:35.892Z,97371.94
2024-03-15T06:55:04.984Z,97374.03
2024-03-15T06:57:34.204Z,97376.94
2024-03-15T07:00:09.640Z,97379.84
2024-03-15T07:02:41.390Z,97382.66
2024-03-15T07:05:09.964Z,97387.22
2024-03-15T07:07:39.593Z,97375.78
2024-03-15T07:10:09.515Z,97379.09
2024-03-15T07:12:40.702Z,97387.81
2024-03-15T07:15:10.786Z,97383.00
2024-03-15T07:17:40.244Z,97380.59
2024-03-15T07:20:10.526Z,97383.56
2024-03-15T07:22:39.485Z,97371.34
2024-03-15T07:25:11.752Z,97367.06
2024-03-15T07:27:42.087Z,97365.25
2024-03-15T07:30:15.402Z,97365.59
2024-03-15T07:32:43.934Z,97372.31
2024-03-15T07:35:12.417Z,97370.09
2024-03-15T07:37:41.474Z,97363.41
2024-03-15T07:40:11.817Z,97359.38
2024-03-15T07:42:40.661Z,97361.59
2024-03-15T07:45:11.863Z,97372.47
2024-03-15T07:47:40.581Z,97370.06
2024-03-15T07:50:13.345Z,97362.31
2024-03-15T07:52:41.913Z,97365.75
2024-03-15T07:55:11.021Z,97369.47
2024-03-15T07:57:39.630Z,97368.50
2024-03-15T08:00:10.728Z,97372.34
2024-03-15T08:02:39.251Z,97369.25
2024-03-15T08:05:07.847Z,97369.59
2024-03-15T08:07:36.293Z,97375.56
2024-03-15T08:10:06.885Z,97378.91
2024-03-15T08:12:35.981Z,97378.13
2024-03-15T08:15:08.453Z,97377.44
2024-03-15T08:17:38.020Z,97378.44
2024-03-15T08:20:10.072Z,97375.94
2024-03-15T08:22:41.632Z,97374.44
2024-03-15T08:25:11.479Z,97376.28
2024-03-15T08:27:43.243Z,97382.75
2024-03-15T08:30:14.701Z,97387.06
2024-03-15T08:32:43.270Z,97383.22
2024-03-15T08:35:15.751Z,97373.38
2024-03-15T08:37:45.041Z,97373.38
2024-03-15T08:40:15.739Z,97373.81
2024-03-15T08:42:46.825Z,97369.28
2024-03-15T08:45:16.301Z,97378.25
2024-03-15T08:47:55.630Z,97373.88
2024-03-15T08:50:34.911Z,97367.97
2024-03-15T08:53:05.017Z,97371.72
2024-03-15T08:55:35.004Z,97371.81
2024-03-15T08:58:04.798Z,97365.88
2024-03-15T09:00:33.708Z,97366.59
2024-03-15T09:03:02.155Z,97369.63
2024-03-15T09:05:30.600Z,97373.84
2024-03-15T09:07:59.962Z,97368.78
2024-03-15T09:10:28.672Z,97364.13
2024-03-15T09:12:57.485Z,97361.25
2024-03-15T09:15:27.960Z,97365.78
2024-03-15T09:18:00.086Z,97367.66
2024-03-15T09:20:34.770Z,97366.56
2024-03-15T09:23:04.126Z,97363.75
2024-03-15T09:25:32.829Z,97380.69
2024-03-15T09:28:01.803Z,97369.44
2024-03-15T09:33:05.430Z,97360.94
2024-03-15T09:35:33.998Z,97362.41
2024-03-15T09:38:02.803Z,97356.31
2024-03-15T09:40:31.364Z,97362.75
2024-03-15T09:42:59.844Z,97361.41
2024-03-15T09:45:28.450Z,97363.59
2024-03-15T09:47:57.087Z,97358.59
2024-03-15T09:50:26.212Z,97354.38
2024-03-15T09:52:54.653Z,97353.03
2024-03-15T09:55:23.336Z,97355.63
2024-03-15T09:57:51.978Z,97356.56
2024-03-15T10:00:26.297Z,97359.38
2024-03-15T10:02:55.163Z,97354.38
2024-03-15T10:05:23.762Z,97350.19
2024-03-15T10:07:52.234Z,97356.84
2024-03-15T10:10:20.683Z,97351.38
2024-03-15T10:12:49.348Z,97347.75
2024-03-15T10:15:18.250Z,97350.09
2024-03-15T10:17:47.429Z,97355.50
2024-03-15T10:20:19.480Z,97350.13
2024-03-15T10:22:49.979Z,97345.22
2024-03-15T10:25:20.054Z,97348.91
2024-03-15T10:27:50.178Z,97338.97
2024-03-15T10:30:21.328Z,97338.94
2024-03-15T10:32:50.718Z,97348.84
2024-03-15T10:35:20.337Z,97337.59
2024-03-15T10:37:49.095Z,97338.38
2024-03-15T10:40:17.596Z,97334.19
2024-03-15T10:42:47.831Z,97335.38
2024-03-15T10:45:16.718Z,97330.34
2024-03-15T10:47:45.707Z,97327.78
2024-03-15T10:50:14.240Z,97329.81
2024-03-15T10:52:43.251Z,97325.38
2024-03-15T10:55:18.911Z,97326.09
2024-03-15T10:57:47.498Z,97330.19
2024-03-15T11:00:17.473Z,97330.31
2024-03-15T11:02:46.063Z,97326.31
2024-03-15T11:05:17.431Z,97336.00
2024-03-15T11:07:45.929Z,97330.94
2024-03-15T11:10:16.344Z,97322.56
2024-03-15T11:12:44.971Z,97322.88
2024-03-15T11:15:14.981Z,97319.44
2024-03-15T11:17:44.054Z,97319.28
2024-03-15T11:20:14.378Z,97318.56
2024-03-15T11:22:42.975Z,97311.22
2024-03-15T11:25:19.438Z,97312.94
2024-03-15T11:28:00.917Z,97315.31
2024-03-15T11:30:29.837Z,97303.78
2024-03-15T11:32:58.766Z,97303.44
2024-03-15T11:35:27.357Z,97302.44
2024-03-15T11:37:57.346Z,97302.94
2024-03-15T11:40:27.506Z,97303.91
2024-03-15T11:43:05.427Z,97307.34
2024-03-15T11:45:38.082Z,97302.28
2024-03-15T11:48:16.305Z,97295.84
2024-03-15T11:50:46.101Z,97295.63
2024-03-15T11:53:15.680Z,97293.03
2024-03-15T11:55:44.657Z,97292.56
2024-03-15T11:58:15.069Z,97297.50
2024-03-15T12:00:43.786Z,97292.34
2024-03-15T12:03:13.111Z,97297.75
2024-03-15T12:05:43.386Z,97288.59
2024-03-15T12:08:14.631Z,97294.00
2024-03-15T12:10:43.314Z,97291.88
2024-03-15T12:13:18.089Z,97286.84
2024-03-15T12:15:47.340Z,97294.59
2024-03-15T12:18:16.626Z,97283.53
2024-03-15T12:20:45.194Z,97279.66
2024-03-15T12:23:14.492Z,97284.50
2024-03-15T12:25:42.988Z,97277.50
2024-03-15T12:28:13.762Z,97269.03
2024-03-15T12:30:42.765Z,97273.59
2024-03-15T12:33:11.714Z,97273.00
2024-03-15T12:35:40.656Z,97275.31
2024-03-15T12:38:09.992Z,97267.44
2024-03-15T12:40:43.697Z,97270.84
2024-03-15T12:43:14.999Z,97261.16
2024-03-15T12:45:43.984Z,97255.50
2024-03-15T12:48:13.205Z,97261.06
2024-03-15T12:50:42.561Z,97259.41
2024-03-15T12:53:13.316Z,97252.22
2024-03-15T12:55:42.534Z,97247.97
2024-03-15T12:58:11.737Z,97255.97
2024-03-15T13:00:40.600Z,97242.91
2024-03-15T13:03:11.699Z,97242.31
2024-03-15T13:05:40.292Z,97248.63
2024-03-15T13:08:08.831Z,97245.69
2024-03-15T13:10:40.245Z,97248.75
2024-03-15T13:13:08.697Z,97242.03
2024-03-15T13:15:37.700Z,97247.78
2024-03-15T13:18:08.241Z,97251.22
2024-03-15T13:20:36.792Z,97257.34
2024-03-15T13:23:06.566Z,97240.69
2024-03-15T13:25:38.179Z,97250.00
2024-03-15T13:28:09.098Z,97256.59
2024-03-15T13:30:39.582Z,97243.66
2024-03-15T13:33:11.127Z,97244.84
2024-03-15T13:35:42.862Z,97242.78
2024-03-15T13:38:15.586Z,97247.13
2024-03-15T13:40:45.072Z,97241.38
2024-03-15T13:43:13.849Z,97229.63
2024-03-15T13:45:42.345Z,97242.19
2024-03-15T13:48:13.384Z,97234.41
2024-03-15T13:50:43.270Z,97228.28
2024-03-15T13:53:12.659Z,97236.66
2024-03-15T13:55:41.414Z,97232.97
2024-03-15T13:58:09.920Z,97225.78
2024-03-15T14:00:41.972Z,97219.66
2024-03-15T14:03:11.144Z,97227.03
2024-03-15T14:05:40.990Z,97219.63
2024-03-15T14:08:10.187Z,97225.16
2024-03-15T14:10:38.911Z,97216.56
2024-03-15T14:13:07.700Z,97216.63
2024-03-15T14:15:36.551Z,97216.41
2024-03-15T14:18:06.753Z,97219.03
2024-03-15T14:20:36.216Z,97214.34
2024-03-15T14:23:04.910Z,97219.41
2024-03-15T14:25:34.637Z,97211.16
2024-03-15T14:28:06.185Z,97210.81
2024-03-15T14:30:35.843Z,97210.47
2024-03-15T14:33:08.568Z,97200.13
2024-03-15T14:35:37.477Z,97193.31
2024-03-15T14:38:09.555Z,97196.25
2024-03-15T14:40:40.221Z,97192.63
2024-03-15T14:43:12.118Z,97192.88
2024-03-15T14:45:41.857Z,97185.78
2024-03-15T14:48:15.362Z,97193.69
2024-03-15T14:50:45.650Z,97189.34
2024-03-15T14:53:17.177Z,97181.47
2024-03-15T14:55:46.989Z,97180.63
2024-03-15T14:58:16.119Z,97186.28
2024-03-15T15:00:49.493Z,97179.94
2024-03-15T15:03:18.728Z,97185.25
2024-03-15T15:05:47.870Z,97180.53
2024-03-15T15:08:16.464Z,97182.09
2024-03-15T15:10:44.963Z,97185.53
2024-03-15T15:13:13.648Z,97194.34
2024-03-15T15:15:43.262Z,97188.59
2024-03-15T15:18:13.060Z,97191.16
2024-03-15T15:20:43.545Z,97186.69
2024-03-15T15:23:12.314Z,97186.00
2024-03-15T15:25:42.494Z,97190.47
2024-03-15T15:28:11.058Z,97186.81
2024-03-15T15:30:39.597Z,97192.94
2024-03-15T15:33:09.291Z,97189.31
2024-03-15T15:35:38.655Z,97194.34
2024-03-15T15:38:08.832Z,97191.78
2024-03-15T15:40:39.038Z,97197.53
2024-03-15T15:43:08.289Z,97199.53
2024-03-15T15:45:38.373Z,97197.75
2024-03-15T15:48:09.153Z,97198.06
2024-03-15T15:50:38.921Z,97193.81
2024-03-15T15:53:07.471Z,97202.84
2024-03-15T15:55:37.287Z,97230.75
2024-03-15T15:58:06.493Z,97253.25
2024-03-15T16:00:35.206Z,97253.19
2024-03-15T16:03:04.805Z,97269.56
2024-03-15T16:05:34.764Z,97275.06
2024-03-15T16:08:05.458Z,97287.53
2024-03-15T16:10:35.377Z,97291.28
2024-03-15T16:13:03.922Z,97306.34
2024-03-15T16:15:32.491Z,97300.84
2024-03-15T16:18:01.102Z,97297.03
2024-03-15T16:20:29.860Z,97306.22
2024-03-15T16:22:59.280Z,97323.81
2024-03-15T16:25:27.693Z,97342.06
2024-03-15T16:27:56.205Z,97340.22
2024-03-15T16:30:25.163Z,97354.50
2024-03-15T16:33:01.725Z,97355.34
2024-03-15T16:35:32.859Z,97361.06
2024-03-15T16:38:01.421Z,97361.91
2024-03-15T16:40:30.017Z,97373.44
2024-03-15T16:43:00.372Z,97371.56
2024-03-15T16:45:29.145Z,97390.09
2024-03-15T16:47:57.743Z,97382.03
2024-03-15T16:50:26.692Z,97373.34
2024-03-15T16:52:55.399Z,97374.28
2024-03-15T16:55:24.918Z,97376.31
2024-03-15T16:57:53.761Z,97380.19
2024-03-15T17:00:23.525Z,97389.41
2024-03-15T17:02:53.312Z,97393.88
2024-03-15T17:05:21.930Z,97385.16
2024-03-15T17:07:52.890Z,97392.53
2024-03-15T17:10:22.692Z,97384.44
2024-03-15T17:12:51.560Z,97371.84
2024-03-15T17:15:20.499Z,97377.94
2024-03-15T17:17:49.260Z,97379.16
2024-03-15T17:20:20.932Z,97379.94
2024-03-15T17:22:49.360Z,97378.88
2024-03-15T17:25:18.011Z,97379.28
2024-03-15T17:27:46.460Z,97387.25
2024-03-15T17:30:18.093Z,97387.81
2024-03-15T17:32:46.497Z,97391.06
2024-03-15T17:35:15.331Z,97391.28
2024-03-15T17:37:45.058Z,97387.13
2024-03-15T17:40:13.982Z,97386.50
2024-03-15T17:42:42.653Z,97391.41
2024-03-15T17:45:11.454Z,97390.97
2024-03-15T17:47:40.193Z,97403.72
2024-03-15T17:50:09.267Z,97402.25
2024-03-15T17:52:39.519Z,97396.25
2024-03-15T17:55:11.651Z,97395.63
2024-03-15T17:57:40.574Z,97406.72
2024-03-15T18:00:13.954Z,97404.44
2024-03-15T18:02:42.861Z,97402.13
2024-03-15T18:05:12.610Z,97409.50
2024-03-15T18:07:41.337Z,97394.03
2024-03-15T18:10:10.868Z,97401.97
2024-03-15T18:12:40.235Z,97396.72
2024-03-15T18:15:14.685Z,97394.16
2024-03-15T18:17:43.284Z,97393.66
2024-03-15T18:20:11.964Z,97389.63
2024-03-15T18:22:40.397Z,97396.09
2024-03-15T18:25:09.541Z,97393.69
2024-03-15T18:27:38.315Z,97389.69
2024-03-15T18:30:08.102Z,97383.59
2024-03-15T18:32:37.779Z,97386.38
2024-03-15T18:35:06.799Z,97388.09
2024-03-15T18:37:35.231Z,97383.66
2024-03-15T18:40:03.932Z,97387.06
2024-03-15T18:42:32.542Z,97377.94
2024-03-15T18:45:01.976Z,97392.69
2024-03-15T18:47:31.105Z,97385.22
2024-03-15T18:49:59.868Z,97382.25
2024-03-15T18:52:28.378Z,97383.81
2024-03-15T18:54:58.288Z,97387.03
2024-03-15T18:57:27.574Z,97387.09
2024-03-15T18:59:59.455Z,97390.50
2024-03-15T19:02:28.174Z,97393.34
2024-03-15T19:04:56.588Z,97395.22
2024-03-15T19:07:25.053Z,97405.88
2024-03-15T19:09:53.655Z,97403.03
2024-03-15T19:12:22.508Z,97415.38
2024-03-15T19:14:51.130Z,97418.69
2024-03-15T19:17:19.653Z,97416.03
2024-03-15T19:19:51.376Z,97416.66
2024-03-15T19:22:20.039Z,97416.66
2024-03-15T19:24:48.612Z,97417.50
2024-03-15T19:27:17.151Z,97417.50
2024-03-15T19:29:45.682Z,97415.84
2024-03-15T19:32:14.142Z,97418.53
2024-03-15T19:34:42.702Z,97415.00
2024-03-15T19:37:11.530Z,97418.03
2024-03-15T19:39:40.095Z,97419.06
2024-03-15T19:42:09.072Z,97415.06
2024-03-15T19:44:37.544Z,97414.44
2024-03-15T19:47:08.190Z,97418.28
2024-03-15T19:49:36.666Z,97415.34
2024-03-15T19:52:05.996Z,97419.19
2024-03-15T19:54:34.801Z,97423.03
2024-03-15T19:57:04.129Z,97427.09
2024-03-15T19:59:33.032Z,97423.94
2024-03-15T20:02:04.133Z,97423.47
2024-03-15T20:04:32.745Z,97425.66
2024-03-15T20:07:01.641Z,97421.53
2024-03-15T20:09:30.194Z,97429.22
2024-03-15T20:11:58.645Z,97434.03
2024-03-15T20:14:27.298Z,97432.56
2024-03-15T20:16:55.995Z,97425.09
2024-03-15T20:19:25.309Z,97436.28
2024-03-15T20:21:54.545Z,97428.63
2024-03-15T20:24:23.218Z,97436.19
2024-03-15T20:26:51.960Z,97440.00
2024-03-15T20:29:20.411Z,97430.72
2024-03-15T20:31:48.869Z,97436.38
2024-03-15T20:34:17.411Z,97443.91
2024-03-15T20:36:45.853Z,97441.75
2024-03-15T20:39:15.545Z,97442.09
2024-03-15T20:41:44.650Z,97444.31
2024-03-15T20:44:13.192Z,97436.66
2024-03-15T20:46:41.856Z,97438.84
2024-03-15T20:49:12.826Z,97437.34
2024-03-15T20:51:41.668Z,97439.53
2024-03-15T20:54:10.173Z,97435.38
2024-03-15T20:56:38.612Z,97440.41
2024-03-15T20:59:07.174Z,97443.56
2024-03-15T21:01:35.664Z,97451.91
2024-03-15T21:04:04.201Z,97447.78
2024-03-15T21:06:34.979Z,97443.81
2024-03-15T21:09:06.933Z,97445.97
2024-03-15T21:11:35.688Z,97442.00
2024-03-15T21:14:06.244Z,97451.31
2024-03-15T21:16:34.769Z,97450.84
2024-03-15T21:19:07.105Z,97457.66
2024-03-15T21:21:37.546Z,97454.31
2024-03-15T21:24:06.644Z,97460.97
2024-03-15T21:26:35.445Z,97460.34
2024-03-15T21:29:03.927Z,97460.66
2024-03-15T21:31:32.568Z,97451.38
2024-03-15T21:34:01.080Z,97460.50
2024-03-15T21:36:29.791Z,97463.50
2024-03-15T21:38:58.313Z,97454.03
2024-03-15T21:41:26.929Z,97455.22
2024-03-15T21:43:55.597Z,97453.06
2024-03-15T21:46:33.494Z,97458.56
2024-03-15T21:49:02.559Z,97458.03
2024-03-15T21:51:30.191Z,97462.88
2024-03-15T21:53:58.714Z,97456.91
2024-03-15T21:56:29.107Z,97462.22
2024-03-15T21:59:00.933Z,97463.38
2024-03-15T22:01:31.290Z,97468.03
2024-03-15T22:03:59.982Z,97463.88
2024-03-15T22:06:28.649Z,97462.22
2024-03-15T22:08:57.210Z,97465.03
2024-03-15T22:11:25.801Z,97462.53
2024-03-15T22:13:54.425Z,97458.22
2024-03-15T22:16:22.968Z,97457.38
2024-03-15T22:18:51.620Z,97451.41
2024-03-15T22:21:20.207Z,97455.91
2024-03-15T22:23:48.747Z,97463.03
2024-03-15T22:26:18.236Z,97457.72
2024-03-15T22:28:47.228Z,97460.38
2024-03-15T22:31:16.793Z,97464.88
2024-03-15T22:33:45.373Z,97456.88
2024-03-15T22:36:13.926Z,97449.91
2024-03-15T22:38:42.463Z,97449.91
2024-03-15T22:41:10.902Z,97451.75
2024-03-15T22:43:39.433Z,97448.25
2024-03-15T22:46:07.922Z,97458.91
2024-03-15T22:48:36.570Z,97453.59
2024-03-15T22:51:05.634Z,97462.41
2024-03-15T22:53:34.182Z,97463.22
2024-03-15T22:56:02.699Z,97459.75
2024-03-15T22:58:32.323Z,97454.44
2024-03-15T23:01:06.699Z,97458.91
2024-03-15T23:03:36.072Z,97451.09
2024-03-15T23:06:05.993Z,97460.88
2024-03-15T23:08:34.574Z,97444.63
2024-03-15T23:11:03.262Z,97462.56
2024-03-15T23:13:33.308Z,97453.75
2024-03-15T23:16:01.832Z,97461.56
2024-03-15T23:18:30.411Z,97452.75
2024-03-15T23:21:00.268Z,97445.59
2024-03-15T23:23:28.955Z,97447.41
2024-03-15T23:25:58.528Z,97450.06
2024-03-15T23:28:27.345Z,97448.44
2024-03-15T23:30:57.568Z,97442.09
2024-03-15T23:33:27.455Z,97450.25
2024-03-15T23:35:56.002Z,97443.94
2024-03-15T23:38:24.680Z,97456.41
2024-03-15T23:40:53.474Z,97451.94
2024-03-15T23:43:22.590Z,97453.59
2024-03-15T23:45:52.229Z,97451.94
2024-03-15T23:48:27.444Z,97449.44
2024-03-15T23:50:56.047Z,97456.41
2024-03-15T23:53:24.613Z,97459.06
2024-03-15T23:55:53.100Z,97448.59
2024-03-15T23:58:21.829Z,97453.91
